sensor_id;sensor_type;location;lat;lon;timestamp;P1;durP1;ratioP1;P2;durP2;ratioP2
12296;SDS011;6211;49.124;9.152;2023-02-22T00:00:18;6.97;;;3.47;;
12296;SDS011;6211;49.124;9.152;2023-02-22T00:02:50;5.85;;;3.55;;
12296;SDS011;6211;49.124;9.152;2023-02-22T00:05:18;4.68;;;3.78;;
12296;SDS011;6211;49.124;9.152;2023-02-22T00:07:46;5.70;;;3.90;;
12296;SDS011;6211;49.124;9.152;2023-02-22T00:10:14;6.75;;;3.83;;
12296;SDS011;6211;49.124;9.152;2023-02-22T00:12:44;7.70;;;3.88;;
12296;SDS011;6211;49.124;9.152;2023-02-22T00:15:12;6.43;;;4.25;;
12296;SDS011;6211;49.124;9.152;2023-02-22T00:17:41;7.07;;;4.00;;
12296;SDS011;6211;49.124;9.152;2023-02-22T00:20:08;10.40;;;3.58;;
12296;SDS011;6211;49.124;9.152;2023-02-22T00:22:38;4.82;;;3.90;;
12296;SDS011;6211;49.124;9.152;2023-02-22T00:25:05;6.93;;;4.95;;
12296;SDS011;6211;49.124;9.152;2023-02-22T00:27:33;9.25;;;4.20;;
12296;SDS011;6211;49.124;9.152;2023-02-22T00:30:00;5.13;;;3.78;;
12296;SDS011;6211;49.124;9.152;2023-02-22T00:32:27;4.43;;;3.03;;
12296;SDS011;6211;49.124;9.152;2023-02-22T00:34:55;8.60;;;4.50;;
12296;SDS011;6211;49.124;9.152;2023-02-22T00:37:23;5.43;;;4.18;;
12296;SDS011;6211;49.124;9.152;2023-02-22T00:39:50;6.10;;;4.78;;
12296;SDS011;6211;49.124;9.152;2023-02-22T00:42:17;4.88;;;4.25;;
12296;SDS011;6211;49.124;9.152;2023-02-22T00:44:44;6.05;;;3.50;;
12296;SDS011;6211;49.124;9.152;2023-02-22T00:47:11;6.43;;;4.65;;
12296;SDS011;6211;49.124;9.152;2023-02-22T00:49:38;5.53;;;3.72;;
12296;SDS011;6211;49.124;9.152;2023-02-22T00:52:07;9.80;;;4.63;;
12296;SDS011;6211;49.124;9.152;2023-02-22T00:54:34;7.60;;;4.57;;
12296;SDS011;6211;49.124;9.152;2023-02-22T00:57:01;6.88;;;4.38;;
12296;SDS011;6211;49.124;9.152;2023-02-22T00:59:29;4.15;;;3.60;;
12296;SDS011;6211;49.124;9.152;2023-02-22T01:01:56;7.20;;;3.97;;
12296;SDS011;6211;49.124;9.152;2023-02-22T01:04:23;5.93;;;4.45;;
12296;SDS011;6211;49.124;9.152;2023-02-22T01:06:50;7.10;;;4.88;;
12296;SDS011;6211;49.124;9.152;2023-02-22T01:09:19;8.05;;;4.35;;
12296;SDS011;6211;49.124;9.152;2023-02-22T01:11:46;4.97;;;4.38;;
12296;SDS011;6211;49.124;9.152;2023-02-22T01:14:13;4.68;;;4.18;;
12296;SDS011;6211;49.124;9.152;2023-02-22T01:16:42;5.95;;;4.22;;
12296;SDS011;6211;49.124;9.152;2023-02-22T01:19:09;7.88;;;5.07;;
12296;SDS011;6211;49.124;9.152;2023-02-22T01:21:38;6.22;;;4.30;;
12296;SDS011;6211;49.124;9.152;2023-02-22T01:24:05;8.98;;;4.90;;
12296;SDS011;6211;49.124;9.152;2023-02-22T01:26:34;7.22;;;4.40;;
12296;SDS011;6211;49.124;9.152;2023-02-22T01:29:01;7.60;;;4.03;;
12296;SDS011;6211;49.124;9.152;2023-02-22T01:31:29;7.55;;;4.82;;
12296;SDS011;6211;49.124;9.152;2023-02-22T01:33:56;8.30;;;4.57;;
12296;SDS011;6211;49.124;9.152;2023-02-22T01:36:23;9.27;;;4.78;;
12296;SDS011;6211;49.124;9.152;2023-02-22T01:38:51;5.38;;;4.65;;
12296;SDS011;6211;49.124;9.152;2023-02-22T01:41:18;6.15;;;4.40;;
12296;SDS011;6211;49.124;9.152;2023-02-22T01:43:46;5.15;;;4.65;;
12296;SDS011;6211;49.124;9.152;2023-02-22T01:46:18;4.13;;;3.70;;
12296;SDS011;6211;49.124;9.152;2023-02-22T01:48:47;11.18;;;4.82;;
12296;SDS011;6211;49.124;9.152;2023-02-22T01:51:15;6.53;;;4.13;;
12296;SDS011;6211;49.124;9.152;2023-02-22T01:53:46;5.80;;;4.38;;
12296;SDS011;6211;49.124;9.152;2023-02-22T01:56:14;4.22;;;3.50;;
12296;SDS011;6211;49.124;9.152;2023-02-22T01:58:42;4.60;;;4.15;;
12296;SDS011;6211;49.124;9.152;2023-02-22T02:01:11;3.85;;;3.05;;
12296;SDS011;6211;49.124;9.152;2023-02-22T02:03:38;4.80;;;3.92;;
12296;SDS011;6211;49.124;9.152;2023-02-22T02:06:07;4.18;;;3.70;;
12296;SDS011;6211;49.124;9.152;2023-02-22T02:08:37;4.70;;;3.60;;
12296;SDS011;6211;49.124;9.152;2023-02-22T02:11:07;8.93;;;5.20;;
12296;SDS011;6211;49.124;9.152;2023-02-22T02:13:35;5.40;;;2.72;;
12296;SDS011;6211;49.124;9.152;2023-02-22T02:16:03;5.43;;;3.20;;
12296;SDS011;6211;49.124;9.152;2023-02-22T02:18:31;4.63;;;3.55;;
12296;SDS011;6211;49.124;9.152;2023-02-22T02:21:07;4.88;;;3.75;;
12296;SDS011;6211;49.124;9.152;2023-02-22T02:23:51;7.40;;;4.00;;
12296;SDS011;6211;49.124;9.152;2023-02-22T02:32:12;5.07;;;4.40;;
12296;SDS011;6211;49.124;9.152;2023-02-22T02:34:44;7.28;;;3.63;;
12296;SDS011;6211;49.124;9.152;2023-02-22T02:37:17;3.97;;;3.22;;
12296;SDS011;6211;49.124;9.152;2023-02-22T02:39:48;7.22;;;4.03;;
12296;SDS011;6211;49.124;9.152;2023-02-22T02:42:17;7.07;;;4.63;;
12296;SDS011;6211;49.124;9.152;2023-02-22T02:44:47;4.32;;;3.55;;
12296;SDS011;6211;49.124;9.152;2023-02-22T02:47:21;7.22;;;3.83;;
12296;SDS011;6211;49.124;9.152;2023-02-22T02:49:50;5.15;;;3.95;;
12296;SDS011;6211;49.124;9.152;2023-02-22T02:52:20;4.85;;;3.88;;
12296;SDS011;6211;49.124;9.152;2023-02-22T02:54:49;4.72;;;3.58;;
12296;SDS011;6211;49.124;9.152;2023-02-22T02:57:17;9.50;;;3.67;;
12296;SDS011;6211;49.124;9.152;2023-02-22T02:59:44;4.68;;;3.75;;
12296;SDS011;6211;49.124;9.152;2023-02-22T03:02:19;5.63;;;3.30;;
12296;SDS011;6211;49.124;9.152;2023-02-22T03:04:54;2.97;;;2.67;;
12296;SDS011;6211;49.124;9.152;2023-02-22T03:07:30;8.60;;;3.25;;
12296;SDS011;6211;49.124;9.152;2023-02-22T03:10:02;5.40;;;3.65;;
12296;SDS011;6211;49.124;9.152;2023-02-22T03:12:37;5.82;;;5.25;;
12296;SDS011;6211;49.124;9.152;2023-02-22T03:15:10;4.30;;;3.63;;
12296;SDS011;6211;49.124;9.152;2023-02-22T03:17:41;5.22;;;3.45;;
12296;SDS011;6211;49.124;9.152;2023-02-22T03:20:14;4.32;;;3.80;;
12296;SDS011;6211;49.124;9.152;2023-02-22T03:22:44;4.38;;;3.05;;
12296;SDS011;6211;49.124;9.152;2023-02-22T03:25:19;9.07;;;3.85;;
12296;SDS011;6211;49.124;9.152;2023-02-22T03:27:48;3.78;;;3.17;;
12296;SDS011;6211;49.124;9.152;2023-02-22T03:30:18;3.40;;;3.10;;
12296;SDS011;6211;49.124;9.152;2023-02-22T03:32:50;5.35;;;3.55;;
12296;SDS011;6211;49.124;9.152;2023-02-22T03:35:20;8.98;;;4.43;;
12296;SDS011;6211;49.124;9.152;2023-02-22T03:37:51;6.35;;;4.20;;
12296;SDS011;6211;49.124;9.152;2023-02-22T03:40:21;3.42;;;2.72;;
12296;SDS011;6211;49.124;9.152;2023-02-22T03:42:51;5.40;;;3.90;;
12296;SDS011;6211;49.124;9.152;2023-02-22T03:45:20;5.45;;;4.40;;
12296;SDS011;6211;49.124;9.152;2023-02-22T03:47:48;5.65;;;3.47;;
12296;SDS011;6211;49.124;9.152;2023-02-22T03:50:18;8.30;;;4.15;;
12296;SDS011;6211;49.124;9.152;2023-02-22T03:52:47;9.90;;;4.18;;
12296;SDS011;6211;49.124;9.152;2023-02-22T03:55:15;4.43;;;3.75;;
12296;SDS011;6211;49.124;9.152;2023-02-22T03:57:43;5.22;;;4.28;;
12296;SDS011;6211;49.124;9.152;2023-02-22T04:00:12;7.40;;;4.13;;
12296;SDS011;6211;49.124;9.152;2023-02-22T04:02:41;6.10;;;3.28;;
12296;SDS011;6211;49.124;9.152;2023-02-22T04:05:09;3.75;;;3.03;;
12296;SDS011;6211;49.124;9.152;2023-02-22T04:07:38;5.20;;;3.47;;
12296;SDS011;6211;49.124;9.152;2023-02-22T04:10:06;7.13;;;3.67;;
12296;SDS011;6211;49.124;9.152;2023-02-22T04:12:34;4.75;;;3.50;;
12296;SDS011;6211;49.124;9.152;2023-02-22T04:15:01;5.32;;;3.83;;
12296;SDS011;6211;49.124;9.152;2023-02-22T04:17:28;3.55;;;3.13;;
12296;SDS011;6211;49.124;9.152;2023-02-22T04:19:55;6.05;;;4.00;;
12296;SDS011;6211;49.124;9.152;2023-02-22T04:22:22;8.23;;;4.70;;
12296;SDS011;6211;49.124;9.152;2023-02-22T04:24:49;3.88;;;3.53;;
12296;SDS011;6211;49.124;9.152;2023-02-22T04:27:19;6.53;;;4.22;;
12296;SDS011;6211;49.124;9.152;2023-02-22T04:29:46;4.03;;;3.63;;
12296;SDS011;6211;49.124;9.152;2023-02-22T04:32:13;3.47;;;3.20;;
12296;SDS011;6211;49.124;9.152;2023-02-22T04:34:40;4.97;;;3.10;;
12296;SDS011;6211;49.124;9.152;2023-02-22T04:37:07;4.07;;;3.08;;
12296;SDS011;6211;49.124;9.152;2023-02-22T04:39:35;7.30;;;2.92;;
12296;SDS011;6211;49.124;9.152;2023-02-22T04:42:02;4.57;;;3.30;;
12296;SDS011;6211;49.124;9.152;2023-02-22T04:44:30;5.75;;;4.47;;
12296;SDS011;6211;49.124;9.152;2023-02-22T04:46:57;4.30;;;3.47;;
12296;SDS011;6211;49.124;9.152;2023-02-22T04:49:25;6.43;;;3.72;;
12296;SDS011;6211;49.124;9.152;2023-02-22T04:51:52;3.17;;;2.92;;
12296;SDS011;6211;49.124;9.152;2023-02-22T04:54:19;6.90;;;5.47;;
12296;SDS011;6211;49.124;9.152;2023-02-22T04:56:46;6.38;;;4.35;;
12296;SDS011;6211;49.124;9.152;2023-02-22T04:59:13;6.13;;;3.35;;
12296;SDS011;6211;49.124;9.152;2023-02-22T05:01:42;5.45;;;4.60;;
12296;SDS011;6211;49.124;9.152;2023-02-22T05:04:09;3.22;;;3.03;;
12296;SDS011;6211;49.124;9.152;2023-02-22T05:06:36;7.75;;;4.35;;
12296;SDS011;6211;49.124;9.152;2023-02-22T05:09:03;3.42;;;3.13;;
12296;SDS011;6211;49.124;9.152;2023-02-22T05:11:30;8.27;;;4.10;;
12296;SDS011;6211;49.124;9.152;2023-02-22T05:13:58;5.07;;;3.88;;
12296;SDS011;6211;49.124;9.152;2023-02-22T05:16:25;3.88;;;3.10;;
12296;SDS011;6211;49.124;9.152;2023-02-22T05:18:53;4.07;;;3.25;;
12296;SDS011;6211;49.124;9.152;2023-02-22T05:21:20;4.25;;;3.35;;
12296;SDS011;6211;49.124;9.152;2023-02-22T05:23:48;5.90;;;4.18;;
12296;SDS011;6211;49.124;9.152;2023-02-22T05:26:15;5.15;;;4.28;;
12296;SDS011;6211;49.124;9.152;2023-02-22T05:28:43;4.88;;;3.28;;
12296;SDS011;6211;49.124;9.152;2023-02-22T05:31:10;6.57;;;4.22;;
12296;SDS011;6211;49.124;9.152;2023-02-22T05:33:37;3.45;;;3.10;;
12296;SDS011;6211;49.124;9.152;2023-02-22T05:36:06;3.97;;;3.58;;
12296;SDS011;6211;49.124;9.152;2023-02-22T05:38:33;5.07;;;3.30;;
12296;SDS011;6211;49.124;9.152;2023-02-22T05:41:07;5.93;;;3.55;;
12296;SDS011;6211;49.124;9.152;2023-02-22T05:43:34;4.63;;;4.20;;
12296;SDS011;6211;49.124;9.152;2023-02-22T05:46:02;7.40;;;4.05;;
12296;SDS011;6211;49.124;9.152;2023-02-22T05:48:29;5.75;;;3.92;;
12296;SDS011;6211;49.124;9.152;2023-02-22T05:50:56;4.72;;;3.80;;
12296;SDS011;6211;49.124;9.152;2023-02-22T05:53:25;7.18;;;4.28;;
12296;SDS011;6211;49.124;9.152;2023-02-22T05:55:52;5.18;;;3.83;;
12296;SDS011;6211;49.124;9.152;2023-02-22T05:58:19;5.35;;;4.07;;
12296;SDS011;6211;49.124;9.152;2023-02-22T06:00:46;3.55;;;3.13;;
12296;SDS011;6211;49.124;9.152;2023-02-22T06:03:13;4.70;;;3.35;;
12296;SDS011;6211;49.124;9.152;2023-02-22T06:05:41;5.28;;;4.18;;
12296;SDS011;6211;49.124;9.152;2023-02-22T06:08:08;4.13;;;3.55;;
12296;SDS011;6211;49.124;9.152;2023-02-22T06:10:37;4.72;;;2.92;;
12296;SDS011;6211;49.124;9.152;2023-02-22T06:13:05;5.43;;;3.85;;
12296;SDS011;6211;49.124;9.152;2023-02-22T06:15:32;4.38;;;3.38;;
12296;SDS011;6211;49.124;9.152;2023-02-22T06:18:00;5.07;;;3.50;;
12296;SDS011;6211;49.124;9.152;2023-02-22T06:20:27;4.93;;;4.28;;
12296;SDS011;6211;49.124;9.152;2023-02-22T06:22:55;4.38;;;3.10;;
12296;SDS011;6211;49.124;9.152;2023-02-22T06:25:24;4.90;;;3.53;;
12296;SDS011;6211;49.124;9.152;2023-02-22T06:27:52;6.20;;;3.80;;
12296;SDS011;6211;49.124;9.152;2023-02-22T06:30:20;4.00;;;3.58;;
12296;SDS011;6211;49.124;9.152;2023-02-22T06:32:48;5.07;;;4.05;;
12296;SDS011;6211;49.124;9.152;2023-02-22T06:35:15;5.35;;;3.45;;
12296;SDS011;6211;49.124;9.152;2023-02-22T06:37:43;4.00;;;3.53;;
12296;SDS011;6211;49.124;9.152;2023-02-22T06:40:11;6.88;;;5.07;;
12296;SDS011;6211;49.124;9.152;2023-02-22T06:42:38;9.93;;;4.78;;
12296;SDS011;6211;49.124;9.152;2023-02-22T06:45:07;6.75;;;4.63;;
12296;SDS011;6211;49.124;9.152;2023-02-22T06:47:36;12.75;;;4.18;;
12296;SDS011;6211;49.124;9.152;2023-02-22T06:50:04;3.85;;;3.45;;
12296;SDS011;6211;49.124;9.152;2023-02-22T06:52:31;4.38;;;3.92;;
12296;SDS011;6211;49.124;9.152;2023-02-22T06:54:58;12.48;;;4.95;;
12296;SDS011;6211;49.124;9.152;2023-02-22T06:57:26;7.05;;;4.78;;
12296;SDS011;6211;49.124;9.152;2023-02-22T06:59:53;5.35;;;4.35;;
12296;SDS011;6211;49.124;9.152;2023-02-22T07:02:21;4.35;;;3.83;;
12296;SDS011;6211;49.124;9.152;2023-02-22T07:04:48;6.75;;;4.80;;
12296;SDS011;6211;49.124;9.152;2023-02-22T07:07:16;4.97;;;4.03;;
12296;SDS011;6211;49.124;9.152;2023-02-22T07:09:44;7.00;;;4.22;;
12296;SDS011;6211;49.124;9.152;2023-02-22T07:12:11;6.35;;;4.28;;
12296;SDS011;6211;49.124;9.152;2023-02-22T07:14:39;5.82;;;4.40;;
12296;SDS011;6211;49.124;9.152;2023-02-22T07:17:06;5.60;;;5.00;;
12296;SDS011;6211;49.124;9.152;2023-02-22T07:19:34;3.67;;;3.35;;
12296;SDS011;6211;49.124;9.152;2023-02-22T07:22:01;7.93;;;4.93;;
12296;SDS011;6211;49.124;9.152;2023-02-22T07:24:30;4.65;;;4.03;;
12296;SDS011;6211;49.124;9.152;2023-02-22T07:26:59;6.68;;;5.20;;
12296;SDS011;6211;49.124;9.152;2023-02-22T07:29:26;5.25;;;4.65;;
12296;SDS011;6211;49.124;9.152;2023-02-22T07:31:54;7.65;;;5.43;;
12296;SDS011;6211;49.124;9.152;2023-02-22T07:34:21;14.98;;;6.15;;
12296;SDS011;6211;49.124;9.152;2023-02-22T07:36:50;8.30;;;5.15;;
12296;SDS011;6211;49.124;9.152;2023-02-22T07:39:17;7.53;;;5.47;;
12296;SDS011;6211;49.124;9.152;2023-02-22T07:41:44;9.95;;;5.00;;
12296;SDS011;6211;49.124;9.152;2023-02-22T07:44:12;8.88;;;6.13;;
12296;SDS011;6211;49.124;9.152;2023-02-22T07:46:39;8.13;;;5.30;;
12296;SDS011;6211;49.124;9.152;2023-02-22T07:49:06;8.70;;;5.72;;
12296;SDS011;6211;49.124;9.152;2023-02-22T07:51:33;7.78;;;6.40;;
12296;SDS011;6211;49.124;9.152;2023-02-22T07:54:01;7.97;;;5.38;;
12296;SDS011;6211;49.124;9.152;2023-02-22T07:56:28;10.68;;;6.80;;
12296;SDS011;6211;49.124;9.152;2023-02-22T07:58:56;9.43;;;6.63;;
12296;SDS011;6211;49.124;9.152;2023-02-22T08:01:23;7.43;;;5.75;;
12296;SDS011;6211;49.124;9.152;2023-02-22T08:03:50;7.88;;;5.53;;
12296;SDS011;6211;49.124;9.152;2023-02-22T08:06:18;7.13;;;6.35;;
12296;SDS011;6211;49.124;9.152;2023-02-22T08:08:49;9.23;;;7.13;;
12296;SDS011;6211;49.124;9.152;2023-02-22T08:11:18;14.55;;;7.53;;
12296;SDS011;6211;49.124;9.152;2023-02-22T08:13:45;10.32;;;6.18;;
12296;SDS011;6211;49.124;9.152;2023-02-22T08:16:12;31.52;;;12.55;;
12296;SDS011;6211;49.124;9.152;2023-02-22T08:18:39;19.50;;;9.68;;
12296;SDS011;6211;49.124;9.152;2023-02-22T08:21:07;14.77;;;7.82;;
12296;SDS011;6211;49.124;9.152;2023-02-22T08:23:34;7.65;;;6.07;;
12296;SDS011;6211;49.124;9.152;2023-02-22T08:26:03;8.68;;;5.72;;
12296;SDS011;6211;49.124;9.152;2023-02-22T08:28:32;7.75;;;6.45;;
12296;SDS011;6211;49.124;9.152;2023-02-22T08:30:59;6.53;;;5.85;;
12296;SDS011;6211;49.124;9.152;2023-02-22T08:33:26;9.45;;;6.78;;
12296;SDS011;6211;49.124;9.152;2023-02-22T08:35:53;10.27;;;7.10;;
12296;SDS011;6211;49.124;9.152;2023-02-22T08:38:21;8.27;;;6.20;;
12296;SDS011;6211;49.124;9.152;2023-02-22T08:40:48;9.25;;;7.05;;
12296;SDS011;6211;49.124;9.152;2023-02-22T08:43:16;7.75;;;6.43;;
12296;SDS011;6211;49.124;9.152;2023-02-22T08:45:45;9.20;;;6.65;;
12296;SDS011;6211;49.124;9.152;2023-02-22T08:48:12;9.60;;;5.30;;
12296;SDS011;6211;49.124;9.152;2023-02-22T08:50:39;9.70;;;5.88;;
12296;SDS011;6211;49.124;9.152;2023-02-22T08:53:08;7.78;;;5.80;;
12296;SDS011;6211;49.124;9.152;2023-02-22T08:55:36;12.30;;;6.53;;
12296;SDS011;6211;49.124;9.152;2023-02-22T08:58:03;7.90;;;5.70;;
12296;SDS011;6211;49.124;9.152;2023-02-22T09:00:33;9.43;;;6.43;;
12296;SDS011;6211;49.124;9.152;2023-02-22T09:03:03;8.90;;;6.75;;
12296;SDS011;6211;49.124;9.152;2023-02-22T09:05:31;13.25;;;6.97;;
12296;SDS011;6211;49.124;9.152;2023-02-22T09:07:58;7.72;;;5.72;;
12296;SDS011;6211;49.124;9.152;2023-02-22T09:10:26;7.55;;;5.40;;
12296;SDS011;6211;49.124;9.152;2023-02-22T09:12:54;6.80;;;6.15;;
12296;SDS011;6211;49.124;9.152;2023-02-22T09:15:21;13.32;;;6.13;;
12296;SDS011;6211;49.124;9.152;2023-02-22T09:17:49;8.20;;;6.38;;
12296;SDS011;6211;49.124;9.152;2023-02-22T09:20:18;8.65;;;6.53;;
12296;SDS011;6211;49.124;9.152;2023-02-22T09:22:46;9.15;;;5.75;;
12296;SDS011;6211;49.124;9.152;2023-02-22T09:25:14;5.82;;;5.07;;
12296;SDS011;6211;49.124;9.152;2023-02-22T09:27:41;7.93;;;5.75;;
12296;SDS011;6211;49.124;9.152;2023-02-22T09:30:14;6.88;;;5.45;;
12296;SDS011;6211;49.124;9.152;2023-02-22T09:32:41;8.27;;;5.22;;
12296;SDS011;6211;49.124;9.152;2023-02-22T09:35:09;6.45;;;4.50;;
12296;SDS011;6211;49.124;9.152;2023-02-22T09:37:38;6.70;;;4.45;;
12296;SDS011;6211;49.124;9.152;2023-02-22T09:40:09;7.97;;;5.40;;
12296;SDS011;6211;49.124;9.152;2023-02-22T09:42:38;6.85;;;5.40;;
12296;SDS011;6211;49.124;9.152;2023-02-22T09:45:11;7.15;;;4.97;;
12296;SDS011;6211;49.124;9.152;2023-02-22T09:47:40;7.72;;;5.57;;
12296;SDS011;6211;49.124;9.152;2023-02-22T09:50:11;7.40;;;5.57;;
12296;SDS011;6211;49.124;9.152;2023-02-22T09:52:42;8.02;;;5.22;;
12296;SDS011;6211;49.124;9.152;2023-02-22T09:55:14;8.82;;;5.35;;
12296;SDS011;6211;49.124;9.152;2023-02-22T09:57:42;7.00;;;4.97;;
12296;SDS011;6211;49.124;9.152;2023-02-22T10:00:12;7.22;;;5.30;;
12296;SDS011;6211;49.124;9.152;2023-02-22T10:02:43;8.63;;;4.90;;
12296;SDS011;6211;49.124;9.152;2023-02-22T10:05:13;7.35;;;5.15;;
12296;SDS011;6211;49.124;9.152;2023-02-22T10:07:45;9.00;;;5.45;;
12296;SDS011;6211;49.124;9.152;2023-02-22T10:10:13;6.90;;;5.22;;
12296;SDS011;6211;49.124;9.152;2023-02-22T10:12:43;6.32;;;4.22;;
12296;SDS011;6211;49.124;9.152;2023-02-22T10:15:30;8.38;;;4.82;;
12296;SDS011;6211;49.124;9.152;2023-02-22T10:18:13;7.90;;;5.30;;
12296;SDS011;6211;49.124;9.152;2023-02-22T10:20:46;7.45;;;5.47;;
12296;SDS011;6211;49.124;9.152;2023-02-22T10:23:21;5.97;;;4.78;;
12296;SDS011;6211;49.124;9.152;2023-02-22T10:25:55;6.63;;;4.40;;
12296;SDS011;6211;49.124;9.152;2023-02-22T10:28:25;7.50;;;4.88;;
12296;SDS011;6211;49.124;9.152;2023-02-22T10:30:56;9.30;;;5.20;;
12296;SDS011;6211;49.124;9.152;2023-02-22T10:33:25;8.52;;;4.95;;
12296;SDS011;6211;49.124;9.152;2023-02-22T10:35:53;9.60;;;6.05;;
12296;SDS011;6211;49.124;9.152;2023-02-22T10:38:23;6.93;;;4.45;;
12296;SDS011;6211;49.124;9.152;2023-02-22T10:40:52;9.73;;;5.40;;
12296;SDS011;6211;49.124;9.152;2023-02-22T10:43:20;7.78;;;5.50;;
12296;SDS011;6211;49.124;9.152;2023-02-22T10:45:49;6.63;;;5.28;;
12296;SDS011;6211;49.124;9.152;2023-02-22T10:48:19;7.85;;;4.63;;
12296;SDS011;6211;49.124;9.152;2023-02-22T10:50:47;6.68;;;4.55;;
12296;SDS011;6211;49.124;9.152;2023-02-22T10:53:14;5.53;;;4.53;;
12296;SDS011;6211;49.124;9.152;2023-02-22T10:58:29;4.78;;;4.25;;
12296;SDS011;6211;49.124;9.152;2023-02-22T11:01:16;7.18;;;4.53;;
12296;SDS011;6211;49.124;9.152;2023-02-22T11:03:43;7.65;;;4.95;;
12296;SDS011;6211;49.124;9.152;2023-02-22T11:06:17;8.43;;;4.57;;
12296;SDS011;6211;49.124;9.152;2023-02-22T11:08:45;6.50;;;4.43;;
12296;SDS011;6211;49.124;9.152;2023-02-22T11:11:20;5.90;;;4.60;;
12296;SDS011;6211;49.124;9.152;2023-02-22T11:13:53;8.35;;;5.20;;
12296;SDS011;6211;49.124;9.152;2023-02-22T11:16:24;11.90;;;5.40;;
12296;SDS011;6211;49.124;9.152;2023-02-22T11:18:57;6.13;;;4.30;;
12296;SDS011;6211;49.124;9.152;2023-02-22T11:21:25;10.23;;;5.53;;
12296;SDS011;6211;49.124;9.152;2023-02-22T11:23:59;6.57;;;4.65;;
12296;SDS011;6211;49.124;9.152;2023-02-22T11:26:27;6.97;;;4.90;;
12296;SDS011;6211;49.124;9.152;2023-02-22T11:28:55;8.15;;;4.60;;
12296;SDS011;6211;49.124;9.152;2023-02-22T11:31:26;8.65;;;4.38;;
12296;SDS011;6211;49.124;9.152;2023-02-22T11:33:55;9.30;;;4.85;;
12296;SDS011;6211;49.124;9.152;2023-02-22T11:36:28;6.53;;;4.35;;
12296;SDS011;6211;49.124;9.152;2023-02-22T11:38:56;7.07;;;5.25;;
12296;SDS011;6211;49.124;9.152;2023-02-22T11:41:25;9.52;;;5.22;;
12296;SDS011;6211;49.124;9.152;2023-02-22T11:43:53;8.20;;;4.80;;
12296;SDS011;6211;49.124;9.152;2023-02-22T11:46:22;7.00;;;4.90;;
12296;SDS011;6211;49.124;9.152;2023-02-22T11:48:55;6.80;;;4.70;;
12296;SDS011;6211;49.124;9.152;2023-02-22T11:51:25;6.90;;;4.47;;
12296;SDS011;6211;49.124;9.152;2023-02-22T11:53:59;5.90;;;4.25;;
12296;SDS011;6211;49.124;9.152;2023-02-22T11:56:34;8.60;;;5.20;;
12296;SDS011;6211;49.124;9.152;2023-02-22T11:59:05;7.13;;;5.00;;
12296;SDS011;6211;49.124;9.152;2023-02-22T12:01:40;7.65;;;4.68;;
12296;SDS011;6211;49.124;9.152;2023-02-22T12:04:18;7.22;;;4.40;;
12296;SDS011;6211;49.124;9.152;2023-02-22T12:06:50;7.95;;;4.65;;
12296;SDS011;6211;49.124;9.152;2023-02-22T12:09:24;6.22;;;4.97;;
12296;SDS011;6211;49.124;9.152;2023-02-22T12:11:55;7.90;;;5.18;;
12296;SDS011;6211;49.124;9.152;2023-02-22T12:14:25;6.25;;;4.85;;
12296;SDS011;6211;49.124;9.152;2023-02-22T12:17:16;7.30;;;4.60;;
12296;SDS011;6211;49.124;9.152;2023-02-22T12:19:45;7.40;;;5.07;;
12296;SDS011;6211;49.124;9.152;2023-02-22T12:22:15;6.45;;;4.57;;
12296;SDS011;6211;49.124;9.152;2023-02-22T12:24:44;6.88;;;5.50;;
12296;SDS011;6211;49.124;9.152;2023-02-22T12:27:13;6.03;;;4.78;;
12296;SDS011;6211;49.124;9.152;2023-02-22T12:29:42;7.18;;;4.75;;
12296;SDS011;6211;49.124;9.152;2023-02-22T12:32:12;6.57;;;5.00;;
12296;SDS011;6211;49.124;9.152;2023-02-22T12:34:43;7.18;;;4.70;;
12296;SDS011;6211;49.124;9.152;2023-02-22T12:37:13;11.02;;;5.38;;
12296;SDS011;6211;49.124;9.152;2023-02-22T12:39:45;7.50;;;5.20;;
12296;SDS011;6211;49.124;9.152;2023-02-22T12:42:16;7.65;;;5.25;;
12296;SDS011;6211;49.124;9.152;2023-02-22T12:44:44;7.68;;;4.97;;
12296;SDS011;6211;49.124;9.152;2023-02-22T12:47:13;5.35;;;3.78;;
12296;SDS011;6211;49.124;9.152;2023-02-22T12:49:44;6.82;;;4.20;;
12296;SDS011;6211;49.124;9.152;2023-02-22T12:52:17;6.70;;;4.50;;
12296;SDS011;6211;49.124;9.152;2023-02-22T12:54:47;7.22;;;4.20;;
12296;SDS011;6211;49.124;9.152;2023-02-22T12:57:18;7.47;;;4.57;;
12296;SDS011;6211;49.124;9.152;2023-02-22T12:59:46;7.28;;;4.18;;
12296;SDS011;6211;49.124;9.152;2023-02-22T13:02:17;7.38;;;4.47;;
12296;SDS011;6211;49.124;9.152;2023-02-22T13:04:46;7.10;;;4.03;;
12296;SDS011;6211;49.124;9.152;2023-02-22T13:07:17;6.50;;;4.15;;
12296;SDS011;6211;49.124;9.152;2023-02-22T13:12:34;9.48;;;4.30;;
12296;SDS011;6211;49.124;9.152;2023-02-22T13:15:04;7.38;;;4.75;;
12296;SDS011;6211;49.124;9.152;2023-02-22T13:17:36;6.57;;;3.88;;
12296;SDS011;6211;49.124;9.152;2023-02-22T13:20:11;6.28;;;4.38;;
12296;SDS011;6211;49.124;9.152;2023-02-22T13:22:40;5.65;;;4.20;;
12296;SDS011;6211;49.124;9.152;2023-02-22T13:25:11;7.13;;;4.40;;
12296;SDS011;6211;49.124;9.152;2023-02-22T13:27:41;5.50;;;3.97;;
12296;SDS011;6211;49.124;9.152;2023-02-22T13:30:13;5.93;;;4.20;;
12296;SDS011;6211;49.124;9.152;2023-02-22T13:32:46;5.97;;;4.07;;
12296;SDS011;6211;49.124;9.152;2023-02-22T13:35:23;4.93;;;3.67;;
12296;SDS011;6211;49.124;9.152;2023-02-22T13:40:42;5.88;;;4.35;;
12296;SDS011;6211;49.124;9.152;2023-02-22T13:43:15;8.45;;;4.72;;
12296;SDS011;6211;49.124;9.152;2023-02-22T13:45:53;5.78;;;4.18;;
12296;SDS011;6211;49.124;9.152;2023-02-22T13:48:27;6.63;;;4.38;;
12296;SDS011;6211;49.124;9.152;2023-02-22T13:51:09;5.35;;;3.85;;
12296;SDS011;6211;49.124;9.152;2023-02-22T13:53:39;6.63;;;4.43;;
12296;SDS011;6211;49.124;9.152;2023-02-22T13:56:07;9.77;;;4.35;;
12296;SDS011;6211;49.124;9.152;2023-02-22T13:58:45;8.73;;;3.72;;
12296;SDS011;6211;49.124;9.152;2023-02-22T14:04:00;5.25;;;3.78;;
12296;SDS011;6211;49.124;9.152;2023-02-22T14:06:45;7.10;;;4.55;;
12296;SDS011;6211;49.124;9.152;2023-02-22T14:09:14;9.57;;;4.82;;
12296;SDS011;6211;49.124;9.152;2023-02-22T14:11:44;6.40;;;4.30;;
12296;SDS011;6211;49.124;9.152;2023-02-22T14:14:12;6.68;;;3.95;;
12296;SDS011;6211;49.124;9.152;2023-02-22T14:16:41;8.70;;;4.88;;
12296;SDS011;6211;49.124;9.152;2023-02-22T14:19:16;5.38;;;4.22;;
12296;SDS011;6211;49.124;9.152;2023-02-22T14:21:56;6.18;;;4.57;;
12296;SDS011;6211;49.124;9.152;2023-02-22T14:24:26;6.85;;;4.60;;
12296;SDS011;6211;49.124;9.152;2023-02-22T14:26:54;7.60;;;4.32;;
12296;SDS011;6211;49.124;9.152;2023-02-22T14:29:22;6.65;;;4.35;;
12296;SDS011;6211;49.124;9.152;2023-02-22T14:31:55;6.28;;;3.65;;
12296;SDS011;6211;49.124;9.152;2023-02-22T14:34:37;5.78;;;4.13;;
12296;SDS011;6211;49.124;9.152;2023-02-22T14:37:08;6.78;;;4.20;;
12296;SDS011;6211;49.124;9.152;2023-02-22T14:39:38;7.05;;;4.30;;
12296;SDS011;6211;49.124;9.152;2023-02-22T14:42:09;5.97;;;4.30;;
12296;SDS011;6211;49.124;9.152;2023-02-22T14:44:39;5.70;;;4.35;;
12296;SDS011;6211;49.124;9.152;2023-02-22T14:47:13;6.90;;;4.35;;
12296;SDS011;6211;49.124;9.152;2023-02-22T14:49:44;7.20;;;4.32;;
12296;SDS011;6211;49.124;9.152;2023-02-22T14:52:16;7.43;;;4.50;;
12296;SDS011;6211;49.124;9.152;2023-02-22T14:54:48;5.97;;;4.38;;
12296;SDS011;6211;49.124;9.152;2023-02-22T14:57:18;6.45;;;3.85;;
12296;SDS011;6211;49.124;9.152;2023-02-22T14:59:54;7.13;;;4.75;;
12296;SDS011;6211;49.124;9.152;2023-02-22T15:02:23;11.70;;;5.43;;
12296;SDS011;6211;49.124;9.152;2023-02-22T15:04:51;7.40;;;4.60;;
12296;SDS011;6211;49.124;9.152;2023-02-22T15:07:21;8.32;;;4.50;;
12296;SDS011;6211;49.124;9.152;2023-02-22T15:09:51;6.40;;;4.30;;
12296;SDS011;6211;49.124;9.152;2023-02-22T15:12:20;7.20;;;4.60;;
12296;SDS011;6211;49.124;9.152;2023-02-22T15:14:49;7.35;;;4.70;;
12296;SDS011;6211;49.124;9.152;2023-02-22T15:17:17;10.18;;;4.63;;
12296;SDS011;6211;49.124;9.152;2023-02-22T15:19:45;8.55;;;4.13;;
12296;SDS011;6211;49.124;9.152;2023-02-22T15:22:17;7.47;;;4.57;;
12296;SDS011;6211;49.124;9.152;2023-02-22T15:24:46;7.03;;;4.97;;
12296;SDS011;6211;49.124;9.152;2023-02-22T15:27:21;9.65;;;5.10;;
12296;SDS011;6211;49.124;9.152;2023-02-22T15:29:48;12.73;;;4.43;;